Weather at Abu Dhabi Northeast Airport - Suweihan Air Base

Public forecast

Using degrees Celsius for public forecast. Weather courtesy of forecast.io.

Closest aviation weather report (METAR) to Abu Dhabi Northeast Airport - Suweihan Air Base

Closest report is Abu Dhabi International Airport, 18.3 nm (34.0 km) WSW. Retrieved 2022/01/29 07:00 UTC (13 minutes ago):

OMAA 290700Z 31009KT CAVOK 22/14 Q1020 NOSIG

Closest aviation forecast (TAF) to Abu Dhabi Northeast Airport - Suweihan Air Base

Closest forecast is Abu Dhabi International Airport, 18.3 nm (34.0 km) WSW. Retrieved 2022/01/29 06:00 UTC (1 hour ago):

TAF OMAA 290500Z 2906/3012 32010KT 8000 NSC BECMG 2920/2922 26005KT PROB30 2922/3005 VRB02KT 4000 HZ BECMG 3007/3009 32010KT